createdAt,value
2019-04-07T00:00:23.362Z,278.65
2019-04-07T00:01:52.575Z,278.59
2019-04-07T00:03:23.059Z,278.59
2019-04-07T00:04:53.524Z,278.59
2019-04-07T00:06:38.652Z,278.52
2019-04-07T00:08:07.453Z,278.46
2019-04-07T00:09:36.477Z,278.4
2019-04-07T00:11:05.740Z,278.34
2019-04-07T00:12:35.887Z,278.34
2019-04-07T00:14:05.624Z,278.34
2019-04-07T00:15:35.771Z,278.34
2019-04-07T00:17:05.698Z,278.34
2019-04-07T00:18:35.736Z,278.34
2019-04-07T00:20:05.535Z,278.34
2019-04-07T00:21:34.248Z,278.27
2019-04-07T00:23:04.747Z,278.27
2019-04-07T00:24:33.453Z,278.27
2019-04-07T00:26:03.215Z,278.34
2019-04-07T00:27:31.946Z,278.4
2019-04-07T00:29:01.546Z,278.4
2019-04-07T00:30:30.364Z,278.34
2019-04-07T00:32:00.058Z,278.27
2019-04-07T00:33:29.770Z,278.27
2019-04-07T00:34:58.625Z,278.27
2019-04-07T00:36:28.094Z,278.27
2019-04-07T00:37:57.229Z,278.27
2019-04-07T00:39:26.110Z,278.27
2019-04-07T00:40:55.543Z,278.21
2019-04-07T00:42:26.173Z,278.34
2019-04-07T00:43:56.155Z,278.34
2019-04-07T00:45:25.379Z,278.15
2019-04-07T00:46:55.046Z,278.02
2019-04-07T00:48:24.394Z,277.96
2019-04-07T00:49:54.019Z,277.96
2019-04-07T00:51:26.695Z,277.96
2019-04-07T00:52:55.853Z,278.02
2019-04-07T00:54:28.124Z,277.9
2019-04-07T00:55:59.377Z,277.96
2019-04-07T00:57:29.625Z,277.96
2019-04-07T00:59:00.251Z,277.96
2019-04-07T01:00:29.130Z,277.9
2019-04-07T01:01:58.492Z,277.96
2019-04-07T01:03:27.576Z,277.9
2019-04-07T01:04:56.493Z,277.9
2019-04-07T01:06:26.819Z,277.77
2019-04-07T01:07:57.490Z,277.71
2019-04-07T01:09:26.197Z,277.71
2019-04-07T01:10:54.970Z,277.77
2019-04-07T01:12:23.691Z,277.71
2019-04-07T01:13:53.130Z,277.71
2019-04-07T01:15:22.091Z,277.71
2019-04-07T01:16:53.453Z,277.71
2019-04-07T01:18:23.200Z,277.71
2019-04-07T01:19:54.331Z,277.65
2019-04-07T01:21:23.745Z,277.65
2019-04-07T01:22:53.056Z,277.71
2019-04-07T01:24:22.691Z,277.65
2019-04-07T01:25:52.412Z,277.71
2019-04-07T01:27:21.212Z,277.65
2019-04-07T01:28:50.812Z,277.59
2019-04-07T01:30:19.939Z,277.65
2019-04-07T01:31:49.444Z,277.65
2019-04-07T01:33:18.571Z,277.65
2019-04-07T01:34:47.452Z,277.59
2019-04-07T01:36:16.200Z,277.59
2019-04-07T01:37:47.307Z,277.52
2019-04-07T01:39:16.104Z,277.52
2019-04-07T01:40:46.510Z,277.52
2019-04-07T01:42:15.768Z,277.52
2019-04-07T01:43:45.211Z,277.46
2019-04-07T01:45:13.933Z,277.46
2019-04-07T01:46:44.651Z,277.46
2019-04-07T01:48:14.868Z,277.52
2019-04-07T01:49:45.153Z,277.59
2019-04-07T01:51:15.670Z,277.52
2019-04-07T01:52:44.980Z,277.52
2019-04-07T01:54:17.418Z,277.52
2019-04-07T01:55:48.577Z,277.52
2019-04-07T01:57:18.344Z,277.4
2019-04-07T01:58:47.466Z,277.46
2019-04-07T02:00:17.371Z,277.46
2019-04-07T02:01:46.634Z,277.46
2019-04-07T02:03:16.572Z,277.46
2019-04-07T02:04:45.693Z,277.4
2019-04-07T02:06:16.556Z,277.4
2019-04-07T02:07:45.936Z,277.46
2019-04-07T02:09:15.143Z,277.46
2019-04-07T02:10:44.544Z,277.27
2019-04-07T02:12:13.933Z,277.15
2019-04-07T02:13:45.074Z,277.09
2019-04-07T02:15:14.250Z,277.02
2019-04-07T02:16:43.235Z,276.96
2019-04-07T02:18:13.694Z,277.02
2019-04-07T02:19:42.413Z,276.96
2019-04-07T02:21:12.151Z,276.96
2019-04-07T02:22:41.997Z,277.02
2019-04-07T02:24:11.438Z,277.02
2019-04-07T02:25:42.712Z,277.02
2019-04-07T02:27:13.056Z,277.09
2019-04-07T02:28:42.986Z,277.09
2019-04-07T02:30:13.029Z,277.21
2019-04-07T02:31:44.098Z,277.09
2019-04-07T02:33:14.706Z,277.02
2019-04-07T02:34:44.029Z,276.96
2019-04-07T02:36:21.118Z,276.96
2019-04-07T02:37:56.978Z,276.96
2019-04-07T02:39:26.980Z,276.96
2019-04-07T02:40:56.674Z,276.9
2019-04-07T02:42:26.729Z,276.9
2019-04-07T02:43:56.972Z,276.9
2019-04-07T02:45:28.301Z,276.84
2019-04-07T02:46:58.800Z,276.77
2019-04-07T02:48:29.453Z,276.77
2019-04-07T02:49:59.612Z,276.77
2019-04-07T02:51:29.438Z,276.71
2019-04-07T02:52:59.499Z,276.77
2019-04-07T02:54:30.093Z,276.71
2019-04-07T02:56:00.174Z,276.71
2019-04-07T02:57:31.895Z,276.65
2019-04-07T02:59:01.307Z,276.65
2019-04-07T03:00:30.095Z,276.71
2019-04-07T03:02:00.332Z,276.65
2019-04-07T03:03:29.773Z,276.65
2019-04-07T03:04:58.692Z,276.59
2019-04-07T03:06:38.985Z,276.59
2019-04-07T03:08:18.500Z,276.59
2019-04-07T03:09:49.232Z,276.52
2019-04-07T03:11:20.009Z,276.59
2019-04-07T03:12:49.775Z,276.46
2019-04-07T03:14:18.576Z,276.4
2019-04-07T03:15:48.055Z,276.4
2019-04-07T03:17:18.192Z,276.4
2019-04-07T03:18:48.095Z,276.34
2019-04-07T03:20:18.722Z,276.34
2019-04-07T03:21:48.815Z,276.34
2019-04-07T03:23:20.332Z,276.34
2019-04-07T03:24:50.260Z,276.34
2019-04-07T03:26:19.056Z,276.34
2019-04-07T03:27:51.355Z,276.4
2019-04-07T03:29:21.215Z,276.4
2019-04-07T03:30:51.734Z,276.4
2019-04-07T03:32:27.524Z,276.27
2019-04-07T03:34:06.051Z,276.27
2019-04-07T03:35:40.879Z,276.27
2019-04-07T03:37:33.039Z,276.27
2019-04-07T03:39:12.658Z,276.27
2019-04-07T03:40:42.925Z,276.21
2019-04-07T03:42:14.469Z,276.15
2019-04-07T03:43:44.031Z,276.15
2019-04-07T03:45:15.674Z,276.09
2019-04-07T03:46:46.176Z,276.02
2019-04-07T03:48:15.778Z,276.02
2019-04-07T03:49:47.645Z,276.02
2019-04-07T03:51:17.190Z,276.09
2019-04-07T03:52:48.828Z,276.09
2019-04-07T03:54:22.675Z,276.09
2019-04-07T03:55:53.437Z,276.02
2019-04-07T03:57:22.176Z,276.02
2019-04-07T03:58:52.378Z,276.02
2019-04-07T04:00:21.776Z,276.09
2019-04-07T04:01:52.260Z,276.09
2019-04-07T04:03:21.380Z,275.96
2019-04-07T04:04:51.449Z,275.9
2019-04-07T04:06:22.418Z,275.9
2019-04-07T04:07:52.700Z,275.9
2019-04-07T04:09:22.212Z,275.84
2019-04-07T04:10:53.224Z,275.96
2019-04-07T04:12:24.329Z,275.96
2019-04-07T04:13:54.711Z,275.96
2019-04-07T04:15:24.341Z,275.96
2019-04-07T04:16:56.458Z,275.84
2019-04-07T04:18:26.321Z,275.84
2019-04-07T04:19:57.344Z,275.77
2019-04-07T04:21:26.251Z,275.77
2019-04-07T04:22:54.971Z,275.71
2019-04-07T04:24:23.851Z,275.77
2019-04-07T04:25:53.555Z,275.77
2019-04-07T04:27:23.757Z,275.77
2019-04-07T04:28:52.571Z,275.84
2019-04-07T04:30:23.577Z,275.84
2019-04-07T04:31:52.854Z,275.77
2019-04-07T04:33:23.605Z,275.71
2019-04-07T04:34:54.775Z,275.65
2019-04-07T04:36:27.249Z,275.59
2019-04-07T04:37:56.497Z,275.59
2019-04-07T04:39:26.219Z,275.59
2019-04-07T04:40:55.367Z,275.59
2019-04-07T04:42:26.896Z,275.59
2019-04-07T04:43:56.590Z,275.59
2019-04-07T04:45:26.305Z,275.59
2019-04-07T04:46:58.279Z,275.59
2019-04-07T04:48:28.845Z,275.59
2019-04-07T04:49:57.866Z,275.59
2019-04-07T04:51:35.416Z,275.59
2019-04-07T04:53:06.411Z,275.71
2019-04-07T04:54:36.411Z,275.65
2019-04-07T04:56:06.011Z,275.71
2019-04-07T04:57:36.286Z,275.65
2019-04-07T04:59:05.066Z,275.65
2019-04-07T05:00:34.035Z,275.71
2019-04-07T05:02:02.812Z,275.84
2019-04-07T05:03:32.821Z,275.77
2019-04-07T05:05:02.600Z,275.71
2019-04-07T05:06:34.733Z,275.71
2019-04-07T05:08:05.141Z,275.71
2019-04-07T05:09:43.884Z,275.77
2019-04-07T05:11:21.158Z,275.77
2019-04-07T05:12:50.360Z,275.84
2019-04-07T05:14:19.934Z,275.84
2019-04-07T05:15:50.139Z,275.84
2019-04-07T05:17:20.921Z,275.77
2019-04-07T05:18:50.815Z,275.84
2019-04-07T05:20:19.534Z,275.9
2019-04-07T05:21:50.403Z,276.02
2019-04-07T05:23:20.594Z,276.02
2019-04-07T05:24:50.365Z,276.02
2019-04-07T05:26:20.254Z,276.02
2019-04-07T05:27:49.533Z,276.09
2019-04-07T05:29:18.651Z,276.15
2019-04-07T05:30:48.964Z,276.15
2019-04-07T05:32:18.494Z,276.21
2019-04-07T05:33:47.431Z,276.21
2019-04-07T05:35:16.331Z,276.21
2019-04-07T05:36:46.761Z,276.21
2019-04-07T05:38:16.012Z,276.27
2019-04-07T05:39:46.133Z,276.34
2019-04-07T05:41:16.331Z,276.4
2019-04-07T05:42:46.626Z,276.52
2019-04-07T05:44:15.373Z,276.52
2019-04-07T05:45:46.494Z,276.59
2019-04-07T05:47:15.524Z,276.71
2019-04-07T05:48:45.272Z,276.84
2019-04-07T05:50:16.981Z,276.9
2019-04-07T05:51:50.619Z,277.02
2019-04-07T05:53:20.253Z,277.09
2019-04-07T05:54:49.880Z,277.09
2019-04-07T05:56:21.394Z,277.21
2019-04-07T05:57:54.208Z,277.27
2019-04-07T05:59:28.738Z,277.34
2019-04-07T06:00:57.611Z,277.4
2019-04-07T06:02:29.255Z,277.4
2019-04-07T06:04:00.173Z,277.46
2019-04-07T06:05:30.626Z,277.52
2019-04-07T06:07:00.505Z,277.59
2019-04-07T06:08:36.974Z,277.71
2019-04-07T06:10:13.402Z,277.71
2019-04-07T06:11:51.382Z,277.84
2019-04-07T06:13:20.493Z,277.96
2019-04-07T06:14:49.760Z,278.09
2019-04-07T06:16:20.411Z,278.15
2019-04-07T06:17:52.234Z,278.21
2019-04-07T06:19:26.503Z,278.34
2019-04-07T06:20:56.403Z,278.4
2019-04-07T06:22:25.760Z,278.52
2019-04-07T06:23:57.118Z,278.59
2019-04-07T06:25:33.018Z,278.77
2019-04-07T06:27:08.868Z,278.9
2019-04-07T06:28:43.609Z,278.96
2019-04-07T06:30:23.250Z,279.02
2019-04-07T06:31:57.822Z,279.09
2019-04-07T06:33:34.631Z,279.15
2019-04-07T06:35:12.265Z,279.27
2019-04-07T06:36:44.167Z,279.4
2019-04-07T06:38:30.202Z,279.59
2019-04-07T06:40:20.293Z,279.71
2019-04-07T06:41:50.254Z,279.9
2019-04-07T06:43:22.816Z,279.96
2019-04-07T06:44:52.137Z,280.02
2019-04-07T06:46:28.444Z,280.09
2019-04-07T06:47:57.293Z,280.21
2019-04-07T06:49:33.728Z,280.34
2019-04-07T06:51:11.936Z,280.34
2019-04-07T06:52:42.050Z,280.52
2019-04-07T06:54:13.419Z,280.52
2019-04-07T06:55:46.257Z,280.65
2019-04-07T06:57:15.938Z,280.77
2019-04-07T06:58:45.541Z,280.84
2019-04-07T07:00:15.125Z,280.9
2019-04-07T07:01:50.192Z,281.09
2019-04-07T07:03:24.336Z,281.09
2019-04-07T07:04:58.211Z,281.21
2019-04-07T07:06:28.519Z,281.27
2019-04-07T07:07:59.743Z,281.27
2019-04-07T07:09:30.505Z,281.4
2019-04-07T07:11:03.374Z,281.52
2019-04-07T07:12:38.670Z,281.52
2019-04-07T07:14:09.553Z,281.46
2019-04-07T07:16:10.416Z,281.52
2019-04-07T07:17:42.218Z,281.65
2019-04-07T07:19:18.653Z,281.9
2019-04-07T07:20:53.935Z,281.9
2019-04-07T07:22:28.650Z,281.84
2019-04-07T07:23:58.928Z,281.9
2019-04-07T07:25:31.118Z,282.02
2019-04-07T07:27:02.616Z,282.09
2019-04-07T07:28:36.731Z,282.21
2019-04-07T07:30:09.769Z,282.27
2019-04-07T07:31:48.035Z,282.4
2019-04-07T07:33:29.194Z,282.52
2019-04-07T07:35:01.255Z,282.59
2019-04-07T07:36:31.698Z,282.59
2019-04-07T07:38:01.774Z,282.59
2019-04-07T07:39:31.578Z,282.65
2019-04-07T07:41:02.344Z,282.77
2019-04-07T07:42:32.074Z,282.84
2019-04-07T07:44:03.678Z,282.84
2019-04-07T07:45:34.499Z,282.84
2019-04-07T07:47:12.330Z,283.02
2019-04-07T07:48:46.833Z,283.09
2019-04-07T07:50:25.694Z,283.21
2019-04-07T07:51:55.988Z,283.4
2019-04-07T07:53:27.056Z,283.21
2019-04-07T07:54:59.721Z,283.27
2019-04-07T07:56:30.230Z,283.34
2019-04-07T07:58:01.029Z,283.59
2019-04-07T07:59:32.339Z,283.84
2019-04-07T08:01:05.458Z,283.71
2019-04-07T08:02:40.161Z,283.71
2019-04-07T08:04:18.384Z,283.84
2019-04-07T08:05:52.209Z,283.96
2019-04-07T08:07:23.649Z,284.09
2019-04-07T08:08:52.660Z,284.09
2019-04-07T08:10:46.351Z,284.27
2019-04-07T08:12:23.796Z,284.4
2019-04-07T08:13:59.611Z,284.46
2019-04-07T08:15:32.186Z,284.46
2019-04-07T08:17:03.402Z,284.59
2019-04-07T08:18:36.074Z,284.65
2019-04-07T08:20:12.021Z,284.71
2019-04-07T08:21:44.483Z,284.84
2019-04-07T08:23:16.652Z,284.84
2019-04-07T08:24:49.522Z,284.84
2019-04-07T08:26:19.467Z,284.9
2019-04-07T08:27:49.854Z,285.02
2019-04-07T08:29:20.413Z,285.09
2019-04-07T08:30:50.256Z,285.09
2019-04-07T08:32:19.792Z,285.27
2019-04-07T08:33:59.624Z,285.34
2019-04-07T08:35:29.782Z,285.4
2019-04-07T08:37:04.804Z,285.4
2019-04-07T08:38:41.140Z,285.46
2019-04-07T08:40:11.960Z,285.52
2019-04-07T08:41:42.246Z,285.59
2019-04-07T08:43:12.583Z,285.71
2019-04-07T08:44:48.493Z,285.77
2019-04-07T08:46:24.251Z,285.71
2019-04-07T08:48:06.385Z,285.77
2019-04-07T08:49:36.445Z,285.84
2019-04-07T08:51:08.469Z,285.9
2019-04-07T08:52:40.812Z,286.02
2019-04-07T08:54:15.457Z,286.09
2019-04-07T08:55:47.594Z,286.15
2019-04-07T08:57:20.332Z,286.21
2019-04-07T08:58:56.700Z,286.27
2019-04-07T09:00:27.102Z,286.34
2019-04-07T09:01:55.936Z,286.27
2019-04-07T09:03:25.693Z,286.34
2019-04-07T09:04:55.762Z,286.65
2019-04-07T09:06:28.420Z,286.65
2019-04-07T09:07:57.969Z,286.65
2019-04-07T09:09:34.889Z,286.65
2019-04-07T09:11:14.369Z,286.71
2019-04-07T09:12:47.373Z,286.84
2019-04-07T09:14:17.587Z,286.77
2019-04-07T09:15:48.924Z,286.77
2019-04-07T09:17:30.578Z,286.84
2019-04-07T09:19:11.469Z,286.77
2019-04-07T09:20:42.825Z,286.77
2019-04-07T09:22:13.295Z,286.84
2019-04-07T09:23:47.938Z,286.96
2019-04-07T09:25:21.540Z,287.02
2019-04-07T09:26:52.435Z,287.02
2019-04-07T09:28:23.910Z,286.84
2019-04-07T09:29:55.741Z,286.84
2019-04-07T09:31:34.906Z,286.96
2019-04-07T09:33:04.822Z,286.9
2019-04-07T09:34:34.482Z,286.9
2019-04-07T09:36:04.190Z,286.96
2019-04-07T09:37:33.868Z,287.02
2019-04-07T09:39:03.888Z,287.21
2019-04-07T09:40:32.766Z,287.27
2019-04-07T09:42:02.181Z,287.4
2019-04-07T09:43:32.101Z,287.59
2019-04-07T09:45:00.820Z,287.65
2019-04-07T09:46:36.611Z,287.46
2019-04-07T09:48:17.633Z,287.46
2019-04-07T09:49:49.132Z,287.59
2019-04-07T09:51:22.345Z,287.77
2019-04-07T09:52:51.143Z,287.9
2019-04-07T09:54:22.468Z,287.96
2019-04-07T09:55:55.515Z,287.9
2019-04-07T09:57:24.741Z,287.84
2019-04-07T09:58:54.577Z,287.77
2019-04-07T10:00:25.083Z,287.84
2019-04-07T10:01:59.264Z,287.96
2019-04-07T10:03:30.508Z,288.02
2019-04-07T10:05:02.428Z,288.09
2019-04-07T10:06:39.036Z,288.02
2019-04-07T10:08:11.351Z,288.02
2019-04-07T10:09:44.911Z,288.02
2019-04-07T10:11:14.676Z,288.15
2019-04-07T10:12:44.687Z,288.21
2019-04-07T10:14:15.152Z,288.21
2019-04-07T10:15:44.603Z,288.27
2019-04-07T10:17:13.307Z,288.27
2019-04-07T10:18:42.794Z,288.27
2019-04-07T10:20:12.325Z,288.21
2019-04-07T10:21:48.617Z,288.34
2019-04-07T10:23:17.466Z,288.34
2019-04-07T10:24:48.288Z,288.4
2019-04-07T10:26:17.884Z,288.4
2019-04-07T10:27:48.734Z,288.27
2019-04-07T10:29:21.858Z,288.15
2019-04-07T10:30:52.913Z,288.15
2019-04-07T10:32:23.997Z,288.15
2019-04-07T10:33:56.002Z,288.27
2019-04-07T10:35:28.237Z,288.21
2019-04-07T10:36:59.118Z,288.15
2019-04-07T10:38:28.909Z,288.09
2019-04-07T10:39:59.393Z,288.09
2019-04-07T10:41:46.405Z,288.09
2019-04-07T10:43:15.147Z,288.15
2019-04-07T10:44:44.028Z,288.15
2019-04-07T10:46:13.579Z,288.09
2019-04-07T10:47:42.509Z,288.15
2019-04-07T10:49:11.383Z,288.34
2019-04-07T10:50:40.832Z,288.34
2019-04-07T10:52:10.217Z,288.27
2019-04-07T10:53:39.630Z,288.34
2019-04-07T10:55:09.762Z,288.34
2019-04-07T10:56:39.161Z,288.4
2019-04-07T10:58:09.094Z,288.46
2019-04-07T10:59:40.301Z,288.46
2019-04-07T11:01:10.186Z,288.59
2019-04-07T11:02:40.299Z,288.77
2019-04-07T11:04:10.622Z,288.84
2019-04-07T11:05:39.403Z,288.84
2019-04-07T11:07:10.523Z,288.84
2019-04-07T11:08:42.815Z,288.77
2019-04-07T11:10:11.590Z,288.71
2019-04-07T11:12:02.030Z,288.9
2019-04-07T11:13:30.918Z,288.9
2019-04-07T11:15:01.019Z,288.84
2019-04-07T11:16:30.652Z,288.84
2019-04-07T11:18:03.023Z,288.84
2019-04-07T11:19:33.345Z,288.84
2019-04-07T11:21:02.262Z,288.9
2019-04-07T11:22:30.969Z,288.96
2019-04-07T11:24:01.211Z,288.84
2019-04-07T11:25:30.329Z,288.77
2019-04-07T11:26:59.385Z,288.84
2019-04-07T11:28:29.133Z,288.96
2019-04-07T11:29:58.436Z,289.15
2019-04-07T11:31:28.892Z,289.09
2019-04-07T11:32:58.970Z,289.02
2019-04-07T11:34:29.272Z,288.96
2019-04-07T11:35:59.579Z,289.02
2019-04-07T11:37:30.842Z,288.9
2019-04-07T11:39:01.209Z,289.02
2019-04-07T11:40:41.814Z,289.09
2019-04-07T11:42:17.222Z,289.09
2019-04-07T11:43:47.933Z,289.09
2019-04-07T11:45:18.169Z,289.15
2019-04-07T11:46:48.414Z,289.15
2019-04-07T11:48:17.578Z,289.02
2019-04-07T11:49:48.497Z,289.09
2019-04-07T11:51:19.480Z,289.21
2019-04-07T11:52:49.422Z,289.34
2019-04-07T11:54:20.171Z,289.46
2019-04-07T11:55:51.063Z,289.46
2019-04-07T11:57:20.532Z,289.59
2019-04-07T11:58:51.690Z,289.52
2019-04-07T12:00:22.651Z,289.71
2019-04-07T12:01:54.153Z,289.59
2019-04-07T12:03:27.594Z,289.59
2019-04-07T12:04:56.490Z,289.59
2019-04-07T12:06:25.517Z,289.52
2019-04-07T12:07:56.824Z,289.52
2019-04-07T12:09:26.015Z,289.52
2019-04-07T12:11:00.978Z,289.52
2019-04-07T12:12:31.697Z,289.71
2019-04-07T12:14:01.296Z,289.71
2019-04-07T12:15:32.379Z,289.71
2019-04-07T12:17:04.973Z,289.59
2019-04-07T12:18:39.706Z,289.65
2019-04-07T12:20:17.055Z,289.59
2019-04-07T12:21:51.245Z,289.52
2019-04-07T12:23:23.128Z,289.52
2019-04-07T12:24:57.466Z,289.52
2019-04-07T12:26:31.443Z,289.84
2019-04-07T12:28:07.456Z,290.02
2019-04-07T12:29:44.896Z,290.02
2019-04-07T12:31:15.547Z,289.9
2019-04-07T12:32:44.976Z,289.9
2019-04-07T12:34:15.428Z,290.02
2019-04-07T12:35:44.808Z,290.15
2019-04-07T12:37:20.661Z,290.21
2019-04-07T12:38:52.260Z,290.21
2019-04-07T12:40:23.944Z,290.09
2019-04-07T12:41:56.146Z,289.84
2019-04-07T12:43:32.861Z,289.71
2019-04-07T12:45:01.820Z,289.71
2019-04-07T12:46:31.616Z,289.77
2019-04-07T12:48:03.235Z,289.9
2019-04-07T12:49:35.183Z,289.9
2019-04-07T12:51:12.346Z,289.9
2019-04-07T12:52:47.299Z,289.9
2019-04-07T12:54:17.942Z,289.77
2019-04-07T12:55:53.770Z,289.77
2019-04-07T12:57:26.953Z,289.9
2019-04-07T12:59:04.180Z,290.02
2019-04-07T13:00:39.314Z,290.21
2019-04-07T13:02:40.270Z,290.34
2019-04-07T13:04:14.323Z,290.34
2019-04-07T13:05:44.333Z,290.21
2019-04-07T13:07:16.989Z,290.02
2019-04-07T13:08:47.940Z,290.27
2019-04-07T13:10:22.568Z,290.59
2019-04-07T13:11:57.058Z,290.65
2019-04-07T13:13:32.465Z,290.65
2019-04-07T13:15:02.365Z,290.59
2019-04-07T13:16:39.248Z,290.65
2019-04-07T13:18:08.853Z,290.59
2019-04-07T13:19:43.986Z,290.71
2019-04-07T13:21:18.213Z,290.77
2019-04-07T13:22:49.697Z,290.59
2019-04-07T13:24:30.118Z,290.52
2019-04-07T13:26:09.142Z,290.52
2019-04-07T13:27:38.897Z,290.46
2019-04-07T13:29:07.855Z,290.34
2019-04-07T13:30:39.094Z,290.4
2019-04-07T13:32:09.216Z,290.52
2019-04-07T13:33:38.153Z,290.52
2019-04-07T13:35:06.973Z,290.59
2019-04-07T13:36:35.818Z,290.52
2019-04-07T13:38:06.543Z,290.46
2019-04-07T13:39:37.914Z,290.52
2019-04-07T13:41:12.246Z,290.59
2019-04-07T13:42:43.390Z,290.71
2019-04-07T13:44:12.766Z,290.71
2019-04-07T13:45:44.488Z,290.71
2019-04-07T13:47:18.822Z,290.71
2019-04-07T13:48:51.055Z,290.77
2019-04-07T13:50:30.986Z,290.65
2019-04-07T13:52:02.391Z,290.59
2019-04-07T13:53:33.453Z,290.65
2019-04-07T13:55:05.050Z,290.59
2019-04-07T13:56:36.651Z,290.46
2019-04-07T13:58:08.247Z,290.4
2019-04-07T13:59:41.268Z,290.52
2019-04-07T14:01:12.755Z,290.77
2019-04-07T14:02:46.733Z,291.09
2019-04-07T14:04:15.639Z,291.15
2019-04-07T14:05:46.490Z,291.09
2019-04-07T14:07:18.015Z,291.02
2019-04-07T14:08:47.377Z,290.9
2019-04-07T14:10:18.129Z,290.65
2019-04-07T14:11:58.687Z,290.52
2019-04-07T14:13:40.647Z,290.65
2019-04-07T14:15:12.504Z,290.9
2019-04-07T14:16:42.319Z,291.09
2019-04-07T14:18:12.374Z,291.27
2019-04-07T14:19:42.296Z,291.34
2019-04-07T14:21:11.610Z,291.21
2019-04-07T14:22:41.012Z,291.21
2019-04-07T14:24:11.445Z,291.21
2019-04-07T14:25:43.367Z,291.09
2019-04-07T14:27:18.693Z,290.84
2019-04-07T14:28:50.134Z,290.77
2019-04-07T14:30:20.222Z,290.77
2019-04-07T14:31:49.216Z,290.65
2019-04-07T14:33:18.260Z,290.71
2019-04-07T14:34:48.735Z,290.71
2019-04-07T14:36:17.541Z,290.71
2019-04-07T14:37:47.371Z,290.65
2019-04-07T14:39:17.650Z,290.65
2019-04-07T14:40:46.819Z,290.84
2019-04-07T14:42:16.016Z,291.09
2019-04-07T14:43:47.509Z,291.34
2019-04-07T14:45:17.855Z,291.46
2019-04-07T14:46:50.072Z,291.46
2019-04-07T14:48:19.453Z,291.46
2019-04-07T14:49:50.614Z,291.59
2019-04-07T14:51:21.056Z,291.71
2019-04-07T14:52:51.644Z,291.65
2019-04-07T14:54:22.525Z,291.34
2019-04-07T14:55:53.124Z,291.15
2019-04-07T14:57:31.535Z,290.9
2019-04-07T14:59:06.550Z,290.84
2019-04-07T15:00:37.500Z,290.84
2019-04-07T15:02:07.698Z,290.77
2019-04-07T15:03:37.639Z,290.77
2019-04-07T15:05:07.701Z,290.96
2019-04-07T15:06:37.936Z,291.15
2019-04-07T15:08:09.473Z,291.09
2019-04-07T15:09:40.080Z,291.02
2019-04-07T15:11:14.040Z,291.09
2019-04-07T15:12:44.259Z,290.9
2019-04-07T15:14:15.203Z,290.77
2019-04-07T15:15:45.142Z,290.84
2019-04-07T15:17:16.646Z,290.96
2019-04-07T15:18:47.693Z,290.84
2019-04-07T15:20:19.583Z,290.71
2019-04-07T15:21:52.984Z,290.71
2019-04-07T15:23:30.913Z,290.59
2019-04-07T15:25:01.741Z,290.65
2019-04-07T15:26:34.746Z,290.59
2019-04-07T15:28:04.733Z,290.59
2019-04-07T15:29:36.222Z,290.52
2019-04-07T15:31:11.775Z,290.65
2019-04-07T15:32:46.252Z,290.77
2019-04-07T15:34:15.462Z,290.9
2019-04-07T15:35:49.069Z,290.9
2019-04-07T15:37:20.774Z,290.9
2019-04-07T15:38:55.378Z,290.77
2019-04-07T15:40:25.642Z,290.71
2019-04-07T15:42:00.939Z,290.59
2019-04-07T15:43:37.250Z,290.52
2019-04-07T15:45:12.017Z,290.46
2019-04-07T15:46:48.268Z,290.4
2019-04-07T15:48:21.354Z,290.34
2019-04-07T15:49:57.715Z,290.27
2019-04-07T15:51:26.972Z,290.27
2019-04-07T15:53:00.033Z,290.27
2019-04-07T15:54:29.505Z,290.09
2019-04-07T15:56:02.873Z,290.09
2019-04-07T15:57:42.840Z,290.15
2019-04-07T15:59:20.587Z,290.15
2019-04-07T16:00:56.809Z,290.15
2019-04-07T16:02:35.589Z,290.09
2019-04-07T16:04:08.525Z,290.15
2019-04-07T16:05:42.320Z,290.09
2019-04-07T16:07:14.544Z,290.09
2019-04-07T16:08:45.748Z,290.09
2019-04-07T16:10:15.058Z,290.02
2019-04-07T16:11:49.527Z,290.02
2019-04-07T16:13:26.601Z,290.02
2019-04-07T16:14:55.802Z,289.96
2019-04-07T16:16:26.808Z,289.84
2019-04-07T16:17:57.373Z,289.77
2019-04-07T16:19:37.231Z,289.77
2019-04-07T16:21:20.713Z,289.77
2019-04-07T16:22:53.855Z,289.77
2019-04-07T16:24:24.526Z,289.71
2019-04-07T16:25:58.258Z,289.71
2019-04-07T16:27:28.254Z,289.65
2019-04-07T16:29:03.542Z,289.65
2019-04-07T16:32:32.724Z,289.46
2019-04-07T16:34:05.633Z,289.4
2019-04-07T16:35:34.663Z,289.34
2019-04-07T16:37:08.239Z,289.34
2019-04-07T16:38:40.545Z,289.34
2019-04-07T16:40:11.478Z,289.34
2019-04-07T16:41:42.690Z,289.27
2019-04-07T16:43:16.163Z,289.27
2019-04-07T16:44:47.138Z,289.21
2019-04-07T16:46:20.867Z,289.21
2019-04-07T16:47:53.010Z,289.21
2019-04-07T16:49:23.620Z,289.21
2019-04-07T16:50:55.465Z,289.15
2019-04-07T16:52:30.992Z,289.09
2019-04-07T16:54:01.481Z,289.09
2019-04-07T16:55:35.577Z,289.02
2019-04-07T16:57:10.503Z,289.09
2019-04-07T16:58:40.087Z,289.02
2019-04-07T17:00:10.822Z,289.02
2019-04-07T17:01:43.311Z,289.02
2019-04-07T17:03:13.116Z,289.02
2019-04-07T17:04:41.868Z,289.09
2019-04-07T17:06:12.194Z,289.02
2019-04-07T17:07:44.223Z,289.02
2019-04-07T17:09:22.328Z,289.02
2019-04-07T17:10:54.034Z,289.02
2019-04-07T17:12:32.342Z,289.02
2019-04-07T17:14:05.457Z,288.9
2019-04-07T17:15:39.386Z,288.96
2019-04-07T17:17:10.127Z,288.9
2019-04-07T17:18:48.934Z,288.84
2019-04-07T17:20:21.930Z,288.84
2019-04-07T17:22:03.122Z,288.84
2019-04-07T17:23:41.557Z,288.84
2019-04-07T17:25:12.217Z,288.77
2019-04-07T17:26:41.517Z,288.77
2019-04-07T17:28:12.843Z,288.77
2019-04-07T17:29:43.693Z,288.71
2019-04-07T17:31:20.707Z,288.65
2019-04-07T17:32:58.558Z,288.65
2019-04-07T17:34:30.506Z,288.65
2019-04-07T17:36:00.407Z,288.59
2019-04-07T17:37:29.764Z,288.59
2019-04-07T17:39:03.291Z,288.52
2019-04-07T17:40:33.647Z,288.59
2019-04-07T17:42:03.394Z,288.59
2019-04-07T17:43:43.374Z,288.46
2019-04-07T17:45:25.321Z,288.4
2019-04-07T17:46:57.808Z,288.4
2019-04-07T17:48:37.295Z,288.4
2019-04-07T17:50:35.796Z,288.4
2019-04-07T17:52:07.965Z,288.4
2019-04-07T17:53:40.117Z,288.4
2019-04-07T17:55:11.308Z,288.34
2019-04-07T17:56:41.638Z,288.27
2019-04-07T17:58:11.597Z,288.27
2019-04-07T17:59:44.690Z,288.21
2019-04-07T18:01:15.883Z,288.15
2019-04-07T18:02:54.448Z,288.15
2019-04-07T18:04:36.282Z,288.09
2019-04-07T18:06:18.026Z,288.09
2019-04-07T18:07:49.032Z,288.09
2019-04-07T18:09:21.311Z,288.02
2019-04-07T18:10:51.850Z,288.02
2019-04-07T18:12:24.829Z,287.96
2019-04-07T18:13:57.426Z,287.9
2019-04-07T18:15:27.610Z,287.84
2019-04-07T18:17:02.809Z,287.84
2019-04-07T18:18:32.421Z,287.77
2019-04-07T18:20:06.383Z,287.71
2019-04-07T18:21:39.737Z,287.71
2019-04-07T18:23:17.535Z,287.65
2019-04-07T18:24:48.715Z,287.65
2019-04-07T18:26:18.707Z,287.59
2019-04-07T18:27:48.141Z,287.52
2019-04-07T18:29:20.066Z,287.52
2019-04-07T18:30:56.256Z,287.52
2019-04-07T18:32:31.886Z,287.52
2019-04-07T18:34:09.947Z,287.46
2019-04-07T18:35:39.213Z,287.46
2019-04-07T18:37:11.690Z,287.4
2019-04-07T18:38:43.076Z,287.4
2019-04-07T18:40:15.532Z,287.34
2019-04-07T18:41:45.656Z,287.09
2019-04-07T18:43:18.957Z,286.9
2019-04-07T18:44:49.459Z,286.84
2019-04-07T18:46:19.439Z,286.71
2019-04-07T18:47:52.236Z,286.59
2019-04-07T18:49:24.011Z,286.59
2019-04-07T18:50:57.564Z,286.65
2019-04-07T18:52:28.854Z,286.4
2019-04-07T18:54:00.584Z,286.4
2019-04-07T18:55:37.494Z,286.21
2019-04-07T18:57:11.408Z,286.15
2019-04-07T18:58:42.655Z,286.09
2019-04-07T19:00:16.911Z,286.09
2019-04-07T19:01:45.695Z,285.96
2019-04-07T19:03:18.499Z,285.84
2019-04-07T19:04:48.854Z,285.71
2019-04-07T19:06:25.860Z,285.71
2019-04-07T19:07:55.936Z,285.71
2019-04-07T19:09:27.506Z,285.84
2019-04-07T19:11:08.859Z,285.71
2019-04-07T19:12:49.037Z,285.65
2019-04-07T19:14:45.872Z,285.4